SEJ1441 VABB-VAAH
Flight info
| Callsign | SEJ1441 |
|---|---|
| Flight time | N/A |
| Altitude | 31000 |
| Route | ANOLI2A ISRIS G208 APANO APANO1A |
| Aircraft | B738/M-SDE2E3FGHIRWXY/LB1 |
Departure
| Time | 2026-05-04 04:49 |
|---|---|
| Airport | Chhatrapati Shivaji Maharaj International Airport (VABB) |
Arrival
| Time | N/A |
|---|---|
| Airport | Sardar Vallabh Patel International Airport (VAAH) |
| Time | Latitude | Longitude | Altitude | Speed | Heading |
|---|---|---|---|---|---|
| 2026-05-04 04:13 | 19.09248 | 72.85814 | 32 ft | 0 kts | 294° |
| 2026-05-04 04:32 | 19.09247 | 72.85817 | 32 ft | 3 kts | 292° |
| 2026-05-04 04:32 | 19.09247 | 72.85837 | 32 ft | 4 kts | 254° |
| 2026-05-04 04:32 | 19.09249 | 72.85845 | 32 ft | 2 kts | 268° |
| 2026-05-04 04:39 | 19.09178 | 72.85810 | 28 ft | 21 kts | 192° |
| 2026-05-04 04:40 | 19.09131 | 72.85790 | 29 ft | 2 kts | 206° |
| 2026-05-04 04:40 | 19.09107 | 72.85770 | 28 ft | 8 kts | 216° |
| 2026-05-04 04:40 | 19.09040 | 72.85743 | 27 ft | 10 kts | 167° |
| 2026-05-04 04:40 | 19.09037 | 72.85749 | 27 ft | 2 kts | 114° |
| 2026-05-04 04:41 | 19.09031 | 72.85835 | 27 ft | 11 kts | 89° |
| 2026-05-04 04:41 | 19.09031 | 72.85898 | 27 ft | 9 kts | 90° |
| 2026-05-04 04:41 | 19.09031 | 72.85998 | 28 ft | 17 kts | 90° |
| 2026-05-04 04:41 | 19.09036 | 72.86137 | 29 ft | 21 kts | 87° |
| 2026-05-04 04:42 | 19.09041 | 72.86297 | 30 ft | 23 kts | 93° |
| 2026-05-04 04:42 | 19.09041 | 72.86474 | 31 ft | 26 kts | 89° |
| 2026-05-04 04:42 | 19.09043 | 72.86674 | 32 ft | 28 kts | 89° |
| 2026-05-04 04:42 | 19.09046 | 72.86892 | 32 ft | 31 kts | 89° |
| 2026-05-04 04:43 | 19.09047 | 72.87123 | 33 ft | 31 kts | 91° |
| 2026-05-04 04:43 | 19.09051 | 72.87248 | 34 ft | 7 kts | 88° |
| 2026-05-04 04:43 | 19.09053 | 72.87259 | 34 ft | 1 kts | 70° |
| 2026-05-04 04:43 | 19.09055 | 72.87263 | 34 ft | 1 kts | 71° |
| 2026-05-04 04:44 | 19.09055 | 72.87277 | 34 ft | 7 kts | 86° |
| 2026-05-04 04:44 | 19.09053 | 72.87386 | 34 ft | 22 kts | 89° |
| 2026-05-04 04:44 | 19.09054 | 72.87599 | 35 ft | 35 kts | 87° |
| 2026-05-04 04:44 | 19.09059 | 72.87882 | 37 ft | 41 kts | 90° |
| 2026-05-04 04:45 | 19.09015 | 72.88051 | 37 ft | 8 kts | 169° |
| 2026-05-04 04:45 | 19.09013 | 72.88051 | 37 ft | 0 kts | 169° |
| 2026-05-04 04:47 | 19.09012 | 72.88051 | 37 ft | 2 kts | 171° |
| 2026-05-04 04:47 | 19.08942 | 72.88040 | 36 ft | 18 kts | 205° |
| 2026-05-04 04:48 | 19.08884 | 72.87884 | 36 ft | 34 kts | 269° |
| 2026-05-04 04:49 | 19.08847 | 72.83480 | 1405 ft | 197 kts | 263° |
| 2026-05-04 04:49 | 19.08795 | 72.82094 | 2627 ft | 188 kts | 266° |
| 2026-05-04 04:49 | 19.08781 | 72.80678 | 3259 ft | 199 kts | 268° |
| 2026-05-04 04:49 | 19.08762 | 72.79114 | 3472 ft | 226 kts | 268° |
| 2026-05-04 04:50 | 19.08735 | 72.77354 | 3724 ft | 253 kts | 268° |
| 2026-05-04 04:50 | 19.08703 | 72.75457 | 4333 ft | 261 kts | 269° |
| 2026-05-04 04:50 | 19.08929 | 72.73555 | 5058 ft | 262 kts | 293° |
| 2026-05-04 04:50 | 19.09954 | 72.72021 | 5892 ft | 260 kts | 318° |
| 2026-05-04 04:51 | 19.11512 | 72.71090 | 6725 ft | 261 kts | 341° |
| 2026-05-04 04:51 | 19.13374 | 72.70924 | 7282 ft | 275 kts | 7° |
| 2026-05-04 04:51 | 19.15155 | 72.71663 | 7935 ft | 285 kts | 33° |
| 2026-05-04 04:51 | 19.16726 | 72.72955 | 8669 ft | 286 kts | 30° |
| 2026-05-04 04:52 | 19.18486 | 72.73912 | 9365 ft | 285 kts | 16° |
| 2026-05-04 04:52 | 19.20400 | 72.74469 | 10045 ft | 286 kts | 11° |
| 2026-05-04 04:52 | 19.22356 | 72.74936 | 10640 ft | 291 kts | 10° |
| 2026-05-04 04:52 | 19.24351 | 72.75391 | 11242 ft | 295 kts | 10° |
| 2026-05-04 04:53 | 19.26373 | 72.75848 | 11873 ft | 299 kts | 10° |
| 2026-05-04 04:53 | 19.28414 | 72.76306 | 12506 ft | 302 kts | 10° |
| 2026-05-04 04:53 | 19.30507 | 72.76641 | 13058 ft | 305 kts | 354° |
| 2026-05-04 04:53 | 19.32593 | 72.76299 | 13720 ft | 305 kts | 349° |
| 2026-05-04 04:54 | 19.34711 | 72.75986 | 14238 ft | 309 kts | 353° |
| 2026-05-04 04:54 | 19.36865 | 72.75844 | 14824 ft | 313 kts | 357° |
| 2026-05-04 04:54 | 19.39092 | 72.75847 | 15043 ft | 330 kts | 359° |
| 2026-05-04 04:54 | 19.41451 | 72.75976 | 15186 ft | 348 kts | 2° |
| 2026-05-04 04:55 | 19.43926 | 72.76206 | 15297 ft | 366 kts | 4° |
| 2026-05-04 04:55 | 19.46498 | 72.76513 | 15489 ft | 379 kts | 5° |
| 2026-05-04 04:55 | 19.49136 | 72.76872 | 15881 ft | 385 kts | 5° |
| 2026-05-04 04:55 | 19.51807 | 72.77263 | 16339 ft | 389 kts | 6° |
| 2026-05-04 04:56 | 19.54501 | 72.77670 | 16801 ft | 393 kts | 7° |
| 2026-05-04 04:56 | 19.57215 | 72.78088 | 17315 ft | 395 kts | 6° |
| 2026-05-04 04:56 | 19.59909 | 72.78503 | 17796 ft | 398 kts | 7° |
| 2026-05-04 04:56 | 19.62662 | 72.78929 | 18233 ft | 402 kts | 6° |
| 2026-05-04 04:57 | 19.65444 | 72.79359 | 18618 ft | 406 kts | 6° |
| 2026-05-04 04:57 | 19.68249 | 72.79792 | 19048 ft | 408 kts | 6° |
| 2026-05-04 04:57 | 19.71065 | 72.80226 | 19500 ft | 410 kts | 6° |
| 2026-05-04 04:57 | 19.73885 | 72.80661 | 19952 ft | 411 kts | 6° |
| 2026-05-04 04:58 | 19.76728 | 72.81100 | 20401 ft | 413 kts | 6° |
| 2026-05-04 04:58 | 19.79581 | 72.81540 | 20800 ft | 416 kts | 6° |
| 2026-05-04 04:58 | 19.82462 | 72.81985 | 21185 ft | 419 kts | 6° |
| 2026-05-04 04:58 | 19.85345 | 72.82430 | 21615 ft | 420 kts | 6° |
| 2026-05-04 04:59 | 19.88248 | 72.82879 | 21994 ft | 423 kts | 6° |
| 2026-05-04 04:59 | 19.91170 | 72.83330 | 22373 ft | 425 kts | 6° |
| 2026-05-04 04:59 | 19.94091 | 72.83782 | 22772 ft | 426 kts | 6° |
| 2026-05-04 04:59 | 19.97036 | 72.84238 | 23169 ft | 428 kts | 6° |
| 2026-05-04 05:00 | 19.99986 | 72.84694 | 23536 ft | 430 kts | 5° |
| 2026-05-04 05:00 | 20.02954 | 72.85154 | 23814 ft | 432 kts | 5° |
| 2026-05-04 05:00 | 20.08945 | 72.86079 | 23867 ft | 435 kts | 5° |
| 2026-05-04 05:01 | 20.11926 | 72.86493 | 23868 ft | 431 kts | 4° |
| 2026-05-04 05:01 | 20.14904 | 72.86870 | 23878 ft | 431 kts | 4° |
| 2026-05-04 05:01 | 20.17881 | 72.87234 | 23873 ft | 431 kts | 4° |
| 2026-05-04 05:01 | 20.20859 | 72.87599 | 23873 ft | 431 kts | 4° |
| 2026-05-04 05:02 | 20.23835 | 72.87967 | 23874 ft | 431 kts | 4° |
| 2026-05-04 05:02 | 20.26821 | 72.88342 | 23872 ft | 432 kts | 4° |
| 2026-05-04 05:02 | 20.29801 | 72.88718 | 23875 ft | 431 kts | 4° |
| 2026-05-04 05:02 | 20.32793 | 72.89099 | 23868 ft | 431 kts | 4° |
| 2026-05-04 05:03 | 20.35768 | 72.89479 | 23865 ft | 431 kts | 4° |
| 2026-05-04 05:03 | 20.38741 | 72.89858 | 23862 ft | 430 kts | 4° |
| 2026-05-04 05:04 | 20.47618 | 72.90992 | 23856 ft | 429 kts | 4° |
| 2026-05-04 05:04 | 20.50579 | 72.91371 | 23861 ft | 429 kts | 4° |
| 2026-05-04 05:04 | 20.53581 | 72.91754 | 23862 ft | 428 kts | 4° |
| 2026-05-04 05:06 | 20.71398 | 72.94035 | 23851 ft | 429 kts | 4° |
| 2026-05-04 05:06 | 20.74363 | 72.94415 | 23852 ft | 429 kts | 4° |
| 2026-05-04 05:06 | 20.77318 | 72.94731 | 24141 ft | 417 kts | 0° |
| 2026-05-04 05:07 | 20.80140 | 72.94874 | 25143 ft | 397 kts | 358° |
| 2026-05-04 05:07 | 20.82831 | 72.94958 | 26082 ft | 377 kts | 358° |
| 2026-05-04 05:07 | 20.85434 | 72.95026 | 26671 ft | 375 kts | 357° |
| 2026-05-04 05:09 | 21.08270 | 72.95814 | 27228 ft | 438 kts | 358° |
| 2026-05-04 05:09 | 21.11283 | 72.95932 | 27092 ft | 429 kts | 358° |
| 2026-05-04 05:10 | 21.14237 | 72.96046 | 27157 ft | 423 kts | 358° |
| 2026-05-04 05:10 | 21.16226 | 72.96120 | 27185 ft | 422 kts | 358° |
| 2026-05-04 05:10 | 21.20127 | 72.96273 | 27192 ft | 425 kts | 358° |
| 2026-05-04 05:10 | 21.23078 | 72.96420 | 27190 ft | 425 kts | 359° |
| 2026-05-04 05:11 | 21.25067 | 72.96527 | 27195 ft | 425 kts | 359° |
| 2026-05-04 05:11 | 21.28024 | 72.96690 | 27198 ft | 425 kts | 359° |
| 2026-05-04 05:11 | 21.30976 | 72.96852 | 27198 ft | 425 kts | 359° |
| 2026-05-04 05:11 | 21.33930 | 72.97011 | 27190 ft | 425 kts | 359° |
| 2026-05-04 05:12 | 21.36845 | 72.97166 | 27053 ft | 426 kts | 359° |
| 2026-05-04 05:12 | 21.39792 | 72.97322 | 27065 ft | 422 kts | 359° |
| 2026-05-04 05:12 | 21.42731 | 72.97476 | 26781 ft | 427 kts | 359° |
| 2026-05-04 05:12 | 21.45769 | 72.97631 | 25411 ft | 447 kts | 359° |
| 2026-05-04 05:13 | 21.48936 | 72.97795 | 24125 ft | 463 kts | 360° |
| 2026-05-04 05:13 | 21.52190 | 72.97968 | 22848 ft | 475 kts | 0° |
| 2026-05-04 05:13 | 21.55500 | 72.98145 | 22164 ft | 471 kts | 0° |
| 2026-05-04 05:13 | 21.58700 | 72.98218 | 21986 ft | 452 kts | 353° |
| 2026-05-04 05:14 | 21.61700 | 72.97482 | 21648 ft | 436 kts | 340° |
| 2026-05-04 05:14 | 21.64572 | 72.96542 | 21289 ft | 427 kts | 341° |
| 2026-05-04 05:14 | 21.67398 | 72.95670 | 20940 ft | 418 kts | 342° |
| 2026-05-04 05:14 | 21.70177 | 72.94841 | 20587 ft | 411 kts | 342° |
| 2026-05-04 05:15 | 21.72909 | 72.94037 | 20240 ft | 404 kts | 342° |
| 2026-05-04 05:15 | 21.75604 | 72.93248 | 19906 ft | 397 kts | 342° |
| 2026-05-04 05:15 | 21.78249 | 72.92474 | 19540 ft | 393 kts | 342° |
| 2026-05-04 05:15 | 21.80879 | 72.91703 | 19120 ft | 390 kts | 342° |
| 2026-05-04 05:16 | 21.83484 | 72.90937 | 18712 ft | 387 kts | 342° |
| 2026-05-04 05:16 | 21.86069 | 72.90177 | 18298 ft | 384 kts | 342° |
| 2026-05-04 05:16 | 21.88639 | 72.89420 | 17880 ft | 382 kts | 342° |
| 2026-05-04 05:16 | 21.91196 | 72.88667 | 17423 ft | 379 kts | 342° |
| 2026-05-04 05:17 | 21.93736 | 72.87918 | 16964 ft | 377 kts | 342° |
| 2026-05-04 05:17 | 21.96253 | 72.87177 | 16517 ft | 375 kts | 342° |
| 2026-05-04 05:17 | 21.98765 | 72.86436 | 16077 ft | 372 kts | 342° |
| 2026-05-04 05:17 | 22.01256 | 72.85701 | 15652 ft | 370 kts | 342° |
| 2026-05-04 05:18 | 22.03698 | 72.84980 | 15206 ft | 368 kts | 342° |
| 2026-05-04 05:18 | 22.06159 | 72.84253 | 14867 ft | 364 kts | 343° |
| 2026-05-04 05:18 | 22.08578 | 72.83540 | 14841 ft | 362 kts | 342° |
| 2026-05-04 05:18 | 22.11010 | 72.82820 | 14816 ft | 362 kts | 342° |
| 2026-05-04 05:19 | 22.13425 | 72.82107 | 14803 ft | 357 kts | 342° |
| 2026-05-04 05:19 | 22.15816 | 72.81400 | 14804 ft | 356 kts | 342° |
| 2026-05-04 05:19 | 22.18215 | 72.80689 | 14822 ft | 359 kts | 342° |
| 2026-05-04 05:19 | 22.20630 | 72.79975 | 14811 ft | 360 kts | 343° |
| 2026-05-04 05:20 | 22.23047 | 72.79260 | 14813 ft | 361 kts | 343° |
| 2026-05-04 05:20 | 22.25470 | 72.78545 | 14816 ft | 361 kts | 342° |
| 2026-05-04 05:20 | 22.27899 | 72.77843 | 14811 ft | 361 kts | 343° |
| 2026-05-04 05:20 | 22.30325 | 72.77146 | 14807 ft | 361 kts | 343° |
| 2026-05-04 05:21 | 22.32746 | 72.76452 | 14806 ft | 360 kts | 343° |
| 2026-05-04 05:21 | 22.35166 | 72.75758 | 14805 ft | 359 kts | 343° |
| 2026-05-04 05:21 | 22.37573 | 72.75065 | 14805 ft | 358 kts | 343° |
| 2026-05-04 05:21 | 22.39981 | 72.74372 | 14807 ft | 358 kts | 343° |
| 2026-05-04 05:22 | 22.42388 | 72.73678 | 14808 ft | 357 kts | 343° |
| 2026-05-04 05:22 | 22.44792 | 72.72985 | 14805 ft | 357 kts | 343° |
| 2026-05-04 05:22 | 22.47192 | 72.72292 | 14809 ft | 357 kts | 343° |
| 2026-05-04 05:22 | 22.49593 | 72.71599 | 14811 ft | 357 kts | 343° |
| 2026-05-04 05:23 | 22.51994 | 72.70905 | 14797 ft | 357 kts | 343° |
| 2026-05-04 05:23 | 22.54401 | 72.70210 | 14715 ft | 356 kts | 343° |
| 2026-05-04 05:23 | 22.56811 | 72.69514 | 14544 ft | 362 kts | 343° |
| 2026-05-04 05:23 | 22.59279 | 72.68796 | 13742 ft | 374 kts | 343° |
| 2026-05-04 05:24 | 22.61818 | 72.68053 | 12895 ft | 382 kts | 343° |
| 2026-05-04 05:24 | 22.64404 | 72.67297 | 12033 ft | 387 kts | 343° |
| 2026-05-04 05:24 | 22.67014 | 72.66533 | 11187 ft | 390 kts | 343° |
| 2026-05-04 05:24 | 22.69630 | 72.65768 | 10362 ft | 387 kts | 343° |
| 2026-05-04 05:25 | 22.72225 | 72.65010 | 9543 ft | 385 kts | 343° |
| 2026-05-04 05:25 | 22.74794 | 72.64258 | 8684 ft | 382 kts | 343° |
| 2026-05-04 05:25 | 22.77350 | 72.63509 | 7906 ft | 378 kts | 343° |
| 2026-05-04 05:25 | 22.79831 | 72.62783 | 7722 ft | 358 kts | 343° |
| 2026-05-04 05:26 | 22.82168 | 72.62100 | 7598 ft | 339 kts | 343° |
| 2026-05-04 05:26 | 22.84388 | 72.61453 | 7462 ft | 322 kts | 344° |
| 2026-05-04 05:26 | 22.86529 | 72.61011 | 7345 ft | 308 kts | 359° |
| 2026-05-04 05:26 | 22.88607 | 72.61428 | 6914 ft | 308 kts | 20° |
| 2026-05-04 05:27 | 22.90471 | 72.62613 | 6334 ft | 315 kts | 38° |
| 2026-05-04 05:28 | 23.01564 | 72.74823 | 2134 ft | 314 kts | 46° |
| 2026-05-04 05:29 | 23.03062 | 72.76424 | 1943 ft | 289 kts | 45° |
| 2026-05-04 05:29 | 23.04442 | 72.77885 | 1814 ft | 267 kts | 45° |
| 2026-05-04 05:29 | 23.05743 | 72.79262 | 1804 ft | 256 kts | 45° |
| 2026-05-04 05:29 | 23.06975 | 72.80566 | 1778 ft | 236 kts | 45° |
| 2026-05-04 05:31 | 23.14997 | 72.82930 | 1818 ft | 196 kts | 321° |
| 2026-05-04 05:31 | 23.16103 | 72.82045 | 1796 ft | 198 kts | 321° |
| 2026-05-04 05:32 | 23.17178 | 72.81156 | 1811 ft | 197 kts | 325° |
| 2026-05-04 05:32 | 23.18434 | 72.80557 | 1804 ft | 196 kts | 329° |
| 2026-05-04 05:32 | 23.19332 | 72.79537 | 1824 ft | 183 kts | 289° |
| 2026-05-04 05:33 | 23.19354 | 72.76816 | 1812 ft | 182 kts | 258° |
| 2026-05-04 05:33 | 23.19256 | 72.75455 | 1805 ft | 182 kts | 261° |
| 2026-05-04 05:33 | 23.19134 | 72.74130 | 1769 ft | 170 kts | 261° |
| 2026-05-04 05:33 | 23.18990 | 72.72901 | 1595 ft | 157 kts | 244° |
| 2026-05-04 05:34 | 23.18422 | 72.71898 | 1187 ft | 152 kts | 223° |
| 2026-05-04 05:34 | 23.17558 | 72.71177 | 957 ft | 168 kts | 215° |
| 2026-05-04 05:34 | 23.16602 | 72.70392 | 1048 ft | 168 kts | 216° |
| 2026-05-04 05:34 | 23.15727 | 72.69643 | 938 ft | 156 kts | 224° |
| 2026-05-04 05:35 | 23.14923 | 72.68792 | 919 ft | 169 kts | 221° |
| 2026-05-04 05:35 | 23.14102 | 72.67991 | 863 ft | 151 kts | 220° |
| 2026-05-04 05:35 | 23.13338 | 72.67209 | 846 ft | 157 kts | 220° |
| 2026-05-04 05:35 | 23.12550 | 72.66321 | 867 ft | 158 kts | 222° |
| 2026-05-04 05:36 | 23.11683 | 72.65623 | 603 ft | 158 kts | 201° |
| 2026-05-04 05:36 | 23.10680 | 72.65060 | 714 ft | 169 kts | 206° |
| 2026-05-04 05:36 | 23.09677 | 72.64584 | 618 ft | 152 kts | 193° |
| 2026-05-04 05:36 | 23.08619 | 72.64477 | 847 ft | 417 kts | 209° |